sensor_id;sensor_type;location;lat;lon;timestamp;P1;durP1;ratioP1;P2;durP2;ratioP2
781;SDS011;374;52.568;13.402;2024-02-04T00:01:31;11.40;;;4.60;;
781;SDS011;374;52.568;13.402;2024-02-04T00:03:57;7.93;;;3.33;;
781;SDS011;374;52.568;13.402;2024-02-04T00:06:22;7.23;;;3.80;;
781;SDS011;374;52.568;13.402;2024-02-04T00:08:48;6.00;;;3.10;;
781;SDS011;374;52.568;13.402;2024-02-04T00:11:13;5.77;;;4.10;;
781;SDS011;374;52.568;13.402;2024-02-04T00:13:39;10.83;;;3.00;;
781;SDS011;374;52.568;13.402;2024-02-04T00:16:05;13.47;;;3.80;;
781;SDS011;374;52.568;13.402;2024-02-04T00:18:32;12.30;;;4.30;;
781;SDS011;374;52.568;13.402;2024-02-04T00:20:57;10.97;;;3.50;;
781;SDS011;374;52.568;13.402;2024-02-04T00:23:23;9.57;;;4.10;;
781;SDS011;374;52.568;13.402;2024-02-04T00:25:48;12.77;;;3.90;;
781;SDS011;374;52.568;13.402;2024-02-04T00:28:17;6.33;;;3.67;;
781;SDS011;374;52.568;13.402;2024-02-04T00:30:45;10.00;;;3.33;;
781;SDS011;374;52.568;13.402;2024-02-04T00:33:10;8.37;;;3.53;;
781;SDS011;374;52.568;13.402;2024-02-04T00:35:36;6.97;;;2.97;;
781;SDS011;374;52.568;13.402;2024-02-04T00:38:02;6.97;;;3.73;;
781;SDS011;374;52.568;13.402;2024-02-04T00:40:28;10.33;;;2.93;;
781;SDS011;374;52.568;13.402;2024-02-04T00:42:53;5.23;;;2.73;;
781;SDS011;374;52.568;13.402;2024-02-04T00:45:19;8.70;;;2.87;;
781;SDS011;374;52.568;13.402;2024-02-04T00:47:45;8.67;;;3.70;;
781;SDS011;374;52.568;13.402;2024-02-04T00:50:11;12.67;;;3.70;;
781;SDS011;374;52.568;13.402;2024-02-04T00:52:38;14.87;;;3.43;;
781;SDS011;374;52.568;13.402;2024-02-04T00:55:04;11.87;;;3.57;;
781;SDS011;374;52.568;13.402;2024-02-04T00:57:29;12.53;;;3.30;;
781;SDS011;374;52.568;13.402;2024-02-04T00:59:55;6.27;;;2.27;;
781;SDS011;374;52.568;13.402;2024-02-04T01:02:20;6.30;;;2.60;;
781;SDS011;374;52.568;13.402;2024-02-04T01:04:46;6.80;;;3.10;;
781;SDS011;374;52.568;13.402;2024-02-04T01:07:13;8.83;;;2.97;;
781;SDS011;374;52.568;13.402;2024-02-04T01:09:39;8.10;;;2.70;;
781;SDS011;374;52.568;13.402;2024-02-04T01:12:07;7.83;;;3.17;;
781;SDS011;374;52.568;13.402;2024-02-04T01:14:32;11.03;;;3.00;;
781;SDS011;374;52.568;13.402;2024-02-04T01:16:58;9.07;;;3.40;;
781;SDS011;374;52.568;13.402;2024-02-04T01:19:47;9.03;;;2.70;;
781;SDS011;374;52.568;13.402;2024-02-04T01:22:12;5.13;;;2.20;;
781;SDS011;374;52.568;13.402;2024-02-04T01:24:38;6.57;;;2.50;;
781;SDS011;374;52.568;13.402;2024-02-04T01:27:03;8.10;;;3.60;;
781;SDS011;374;52.568;13.402;2024-02-04T01:29:29;11.43;;;3.23;;
781;SDS011;374;52.568;13.402;2024-02-04T01:31:54;8.20;;;2.80;;
781;SDS011;374;52.568;13.402;2024-02-04T01:34:20;6.17;;;2.47;;
781;SDS011;374;52.568;13.402;2024-02-04T01:36:45;5.77;;;2.83;;
781;SDS011;374;52.568;13.402;2024-02-04T01:39:11;8.53;;;3.13;;
781;SDS011;374;52.568;13.402;2024-02-04T01:41:37;7.83;;;3.23;;
781;SDS011;374;52.568;13.402;2024-02-04T01:44:04;4.90;;;2.97;;
781;SDS011;374;52.568;13.402;2024-02-04T01:46:29;13.33;;;2.97;;
781;SDS011;374;52.568;13.402;2024-02-04T01:48:56;8.00;;;2.60;;
781;SDS011;374;52.568;13.402;2024-02-04T01:51:21;6.73;;;3.07;;
781;SDS011;374;52.568;13.402;2024-02-04T01:53:47;8.50;;;2.80;;
781;SDS011;374;52.568;13.402;2024-02-04T01:56:14;7.77;;;3.23;;
781;SDS011;374;52.568;13.402;2024-02-04T01:58:40;8.57;;;3.30;;
781;SDS011;374;52.568;13.402;2024-02-04T02:01:11;5.63;;;3.30;;
781;SDS011;374;52.568;13.402;2024-02-04T02:03:40;7.00;;;2.60;;
781;SDS011;374;52.568;13.402;2024-02-04T02:06:06;11.77;;;3.20;;
781;SDS011;374;52.568;13.402;2024-02-04T02:08:32;7.27;;;3.10;;
781;SDS011;374;52.568;13.402;2024-02-04T02:11:11;7.43;;;3.40;;
781;SDS011;374;52.568;13.402;2024-02-04T02:13:42;14.00;;;3.23;;
781;SDS011;374;52.568;13.402;2024-02-04T02:16:15;10.53;;;3.47;;
781;SDS011;374;52.568;13.402;2024-02-04T02:18:45;8.90;;;2.97;;
781;SDS011;374;52.568;13.402;2024-02-04T02:21:29;9.40;;;3.40;;
781;SDS011;374;52.568;13.402;2024-02-04T02:26:34;10.47;;;3.67;;
781;SDS011;374;52.568;13.402;2024-02-04T02:29:03;7.83;;;3.63;;
781;SDS011;374;52.568;13.402;2024-02-04T02:31:28;9.20;;;3.90;;
781;SDS011;374;52.568;13.402;2024-02-04T02:33:54;7.63;;;3.23;;
781;SDS011;374;52.568;13.402;2024-02-04T02:36:20;4.33;;;2.80;;
781;SDS011;374;52.568;13.402;2024-02-04T02:39:08;10.53;;;2.97;;
781;SDS011;374;52.568;13.402;2024-02-04T02:41:45;11.43;;;3.40;;
781;SDS011;374;52.568;13.402;2024-02-04T02:44:27;8.20;;;3.10;;
781;SDS011;374;52.568;13.402;2024-02-04T02:46:58;6.67;;;3.40;;
781;SDS011;374;52.568;13.402;2024-02-04T02:49:31;9.13;;;3.20;;
781;SDS011;374;52.568;13.402;2024-02-04T02:51:57;7.80;;;3.30;;
781;SDS011;374;52.568;13.402;2024-02-04T02:54:25;7.40;;;2.87;;
781;SDS011;374;52.568;13.402;2024-02-04T02:56:51;9.80;;;2.80;;
781;SDS011;374;52.568;13.402;2024-02-04T02:59:16;14.03;;;3.60;;
781;SDS011;374;52.568;13.402;2024-02-04T03:01:42;14.30;;;3.60;;
781;SDS011;374;52.568;13.402;2024-02-04T03:04:10;6.27;;;3.10;;
781;SDS011;374;52.568;13.402;2024-02-04T03:06:35;7.10;;;4.03;;
781;SDS011;374;52.568;13.402;2024-02-04T03:09:01;5.40;;;3.10;;
781;SDS011;374;52.568;13.402;2024-02-04T03:11:26;6.20;;;2.57;;
781;SDS011;374;52.568;13.402;2024-02-04T03:13:52;10.77;;;3.20;;
781;SDS011;374;52.568;13.402;2024-02-04T03:16:18;5.90;;;2.50;;
781;SDS011;374;52.568;13.402;2024-02-04T03:18:43;5.53;;;2.80;;
781;SDS011;374;52.568;13.402;2024-02-04T03:21:14;5.53;;;2.93;;
781;SDS011;374;52.568;13.402;2024-02-04T03:23:43;7.43;;;3.97;;
781;SDS011;374;52.568;13.402;2024-02-04T03:26:09;5.73;;;3.27;;
781;SDS011;374;52.568;13.402;2024-02-04T03:28:36;7.23;;;3.53;;
781;SDS011;374;52.568;13.402;2024-02-04T03:31:02;7.10;;;3.57;;
781;SDS011;374;52.568;13.402;2024-02-04T03:33:28;5.17;;;3.03;;
781;SDS011;374;52.568;13.402;2024-02-04T03:35:53;5.10;;;3.43;;
781;SDS011;374;52.568;13.402;2024-02-04T03:38:19;11.47;;;3.90;;
781;SDS011;374;52.568;13.402;2024-02-04T03:40:44;8.33;;;3.70;;
781;SDS011;374;52.568;13.402;2024-02-04T03:43:10;5.57;;;3.57;;
781;SDS011;374;52.568;13.402;2024-02-04T03:45:36;6.17;;;3.60;;
781;SDS011;374;52.568;13.402;2024-02-04T03:48:01;5.90;;;3.83;;
781;SDS011;374;52.568;13.402;2024-02-04T03:50:27;8.60;;;3.40;;
781;SDS011;374;52.568;13.402;2024-02-04T03:52:53;5.47;;;4.10;;
781;SDS011;374;52.568;13.402;2024-02-04T03:55:18;7.77;;;3.83;;
781;SDS011;374;52.568;13.402;2024-02-04T03:57:44;3.60;;;3.30;;
781;SDS011;374;52.568;13.402;2024-02-04T04:00:10;5.23;;;3.33;;
781;SDS011;374;52.568;13.402;2024-02-04T04:02:35;6.87;;;4.27;;
781;SDS011;374;52.568;13.402;2024-02-04T04:05:01;5.93;;;3.80;;
781;SDS011;374;52.568;13.402;2024-02-04T04:07:26;6.77;;;4.03;;
781;SDS011;374;52.568;13.402;2024-02-04T04:09:52;8.17;;;3.40;;
781;SDS011;374;52.568;13.402;2024-02-04T04:12:17;4.43;;;3.27;;
781;SDS011;374;52.568;13.402;2024-02-04T04:14:43;5.50;;;2.80;;
781;SDS011;374;52.568;13.402;2024-02-04T04:17:08;6.57;;;4.20;;
781;SDS011;374;52.568;13.402;2024-02-04T04:19:34;7.80;;;4.20;;
781;SDS011;374;52.568;13.402;2024-02-04T04:22:01;4.97;;;3.77;;
781;SDS011;374;52.568;13.402;2024-02-04T04:24:28;10.70;;;3.93;;
781;SDS011;374;52.568;13.402;2024-02-04T04:26:53;9.70;;;3.93;;
781;SDS011;374;52.568;13.402;2024-02-04T04:29:18;11.63;;;4.43;;
781;SDS011;374;52.568;13.402;2024-02-04T04:31:44;11.17;;;4.50;;
781;SDS011;374;52.568;13.402;2024-02-04T04:34:10;9.00;;;5.27;;
781;SDS011;374;52.568;13.402;2024-02-04T04:36:35;9.70;;;3.90;;
781;SDS011;374;52.568;13.402;2024-02-04T04:39:01;9.17;;;4.00;;
781;SDS011;374;52.568;13.402;2024-02-04T04:41:26;12.93;;;4.87;;
781;SDS011;374;52.568;13.402;2024-02-04T04:43:52;7.77;;;3.90;;
781;SDS011;374;52.568;13.402;2024-02-04T04:46:17;6.70;;;3.60;;
781;SDS011;374;52.568;13.402;2024-02-04T04:48:43;8.47;;;4.53;;
781;SDS011;374;52.568;13.402;2024-02-04T04:51:10;4.83;;;3.17;;
781;SDS011;374;52.568;13.402;2024-02-04T04:53:36;6.50;;;3.50;;
781;SDS011;374;52.568;13.402;2024-02-04T04:56:02;6.27;;;3.40;;
781;SDS011;374;52.568;13.402;2024-02-04T04:58:27;9.13;;;3.67;;
781;SDS011;374;52.568;13.402;2024-02-04T05:00:53;5.90;;;3.27;;
781;SDS011;374;52.568;13.402;2024-02-04T05:03:19;7.40;;;3.20;;
781;SDS011;374;52.568;13.402;2024-02-04T05:05:44;8.90;;;3.07;;
781;SDS011;374;52.568;13.402;2024-02-04T05:08:11;3.60;;;2.47;;
781;SDS011;374;52.568;13.402;2024-02-04T05:10:38;7.67;;;2.77;;
781;SDS011;374;52.568;13.402;2024-02-04T05:13:03;3.10;;;2.40;;
781;SDS011;374;52.568;13.402;2024-02-04T05:15:29;8.43;;;3.10;;
781;SDS011;374;52.568;13.402;2024-02-04T05:17:54;6.07;;;2.80;;
781;SDS011;374;52.568;13.402;2024-02-04T05:20:20;6.47;;;2.83;;
781;SDS011;374;52.568;13.402;2024-02-04T05:22:46;6.17;;;2.60;;
781;SDS011;374;52.568;13.402;2024-02-04T05:25:11;5.63;;;2.97;;
781;SDS011;374;52.568;13.402;2024-02-04T05:27:37;5.23;;;2.63;;
781;SDS011;374;52.568;13.402;2024-02-04T05:30:03;7.07;;;3.10;;
781;SDS011;374;52.568;13.402;2024-02-04T05:32:29;8.83;;;4.30;;
781;SDS011;374;52.568;13.402;2024-02-04T05:34:55;5.17;;;3.30;;
781;SDS011;374;52.568;13.402;2024-02-04T05:37:20;4.63;;;2.47;;
781;SDS011;374;52.568;13.402;2024-02-04T05:39:46;4.23;;;2.80;;
781;SDS011;374;52.568;13.402;2024-02-04T05:42:12;7.63;;;3.07;;
781;SDS011;374;52.568;13.402;2024-02-04T05:44:38;3.63;;;2.70;;
781;SDS011;374;52.568;13.402;2024-02-04T05:47:04;11.37;;;3.00;;
781;SDS011;374;52.568;13.402;2024-02-04T05:49:29;5.90;;;2.73;;
781;SDS011;374;52.568;13.402;2024-02-04T05:51:56;6.20;;;3.50;;
781;SDS011;374;52.568;13.402;2024-02-04T05:54:21;5.13;;;2.80;;
781;SDS011;374;52.568;13.402;2024-02-04T05:56:47;6.10;;;2.20;;
781;SDS011;374;52.568;13.402;2024-02-04T05:59:13;6.37;;;2.77;;
781;SDS011;374;52.568;13.402;2024-02-04T06:01:40;6.90;;;2.93;;
781;SDS011;374;52.568;13.402;2024-02-04T06:04:06;6.87;;;2.50;;
781;SDS011;374;52.568;13.402;2024-02-04T06:06:32;3.50;;;2.63;;
781;SDS011;374;52.568;13.402;2024-02-04T06:08:58;5.10;;;2.70;;
781;SDS011;374;52.568;13.402;2024-02-04T06:11:27;5.30;;;3.03;;
781;SDS011;374;52.568;13.402;2024-02-04T06:14:07;5.97;;;3.00;;
781;SDS011;374;52.568;13.402;2024-02-04T06:16:33;5.60;;;2.73;;
781;SDS011;374;52.568;13.402;2024-02-04T06:18:59;7.40;;;3.27;;
781;SDS011;374;52.568;13.402;2024-02-04T06:21:25;8.27;;;2.93;;
781;SDS011;374;52.568;13.402;2024-02-04T06:23:53;7.47;;;3.60;;
781;SDS011;374;52.568;13.402;2024-02-04T06:26:19;5.10;;;3.10;;
781;SDS011;374;52.568;13.402;2024-02-04T06:28:45;5.57;;;2.83;;
781;SDS011;374;52.568;13.402;2024-02-04T06:31:13;5.80;;;3.13;;
781;SDS011;374;52.568;13.402;2024-02-04T06:33:39;5.93;;;3.50;;
781;SDS011;374;52.568;13.402;2024-02-04T06:36:09;5.43;;;3.30;;
781;SDS011;374;52.568;13.402;2024-02-04T06:38:35;4.60;;;3.30;;
781;SDS011;374;52.568;13.402;2024-02-04T06:41:01;8.10;;;3.63;;
781;SDS011;374;52.568;13.402;2024-02-04T06:43:27;4.10;;;3.17;;
781;SDS011;374;52.568;13.402;2024-02-04T06:45:52;5.97;;;3.87;;
781;SDS011;374;52.568;13.402;2024-02-04T06:48:19;6.50;;;4.00;;
781;SDS011;374;52.568;13.402;2024-02-04T06:50:45;7.40;;;4.30;;
781;SDS011;374;52.568;13.402;2024-02-04T06:53:13;7.83;;;3.90;;
781;SDS011;374;52.568;13.402;2024-02-04T06:55:39;8.03;;;4.00;;
781;SDS011;374;52.568;13.402;2024-02-04T06:58:04;7.60;;;4.50;;
781;SDS011;374;52.568;13.402;2024-02-04T07:00:30;5.93;;;3.63;;
781;SDS011;374;52.568;13.402;2024-02-04T07:02:55;5.80;;;4.10;;
781;SDS011;374;52.568;13.402;2024-02-04T07:05:21;12.10;;;4.10;;
781;SDS011;374;52.568;13.402;2024-02-04T07:07:47;11.97;;;4.50;;
781;SDS011;374;52.568;13.402;2024-02-04T07:10:14;10.47;;;4.70;;
781;SDS011;374;52.568;13.402;2024-02-04T07:12:40;6.10;;;4.40;;
781;SDS011;374;52.568;13.402;2024-02-04T07:15:06;6.10;;;4.60;;
781;SDS011;374;52.568;13.402;2024-02-04T07:17:33;7.13;;;5.00;;
781;SDS011;374;52.568;13.402;2024-02-04T07:19:59;13.97;;;4.83;;
781;SDS011;374;52.568;13.402;2024-02-04T07:22:27;11.77;;;5.30;;
781;SDS011;374;52.568;13.402;2024-02-04T07:24:55;8.70;;;6.33;;
781;SDS011;374;52.568;13.402;2024-02-04T07:27:21;10.20;;;5.53;;
781;SDS011;374;52.568;13.402;2024-02-04T07:29:46;7.57;;;4.70;;
781;SDS011;374;52.568;13.402;2024-02-04T07:32:12;10.30;;;5.80;;
781;SDS011;374;52.568;13.402;2024-02-04T07:34:39;8.80;;;5.90;;
781;SDS011;374;52.568;13.402;2024-02-04T07:37:05;9.47;;;5.30;;
781;SDS011;374;52.568;13.402;2024-02-04T07:39:31;8.90;;;5.77;;
781;SDS011;374;52.568;13.402;2024-02-04T07:41:57;11.83;;;6.23;;
781;SDS011;374;52.568;13.402;2024-02-04T07:44:41;8.87;;;5.87;;
781;SDS011;374;52.568;13.402;2024-02-04T07:47:07;8.30;;;5.40;;
781;SDS011;374;52.568;13.402;2024-02-04T07:49:33;6.03;;;5.43;;
781;SDS011;374;52.568;13.402;2024-02-04T07:51:59;9.80;;;5.30;;
781;SDS011;374;52.568;13.402;2024-02-04T07:54:25;10.17;;;6.80;;
781;SDS011;374;52.568;13.402;2024-02-04T07:56:51;11.83;;;6.50;;
781;SDS011;374;52.568;13.402;2024-02-04T07:59:24;14.10;;;8.00;;
781;SDS011;374;52.568;13.402;2024-02-04T08:01:52;6.60;;;4.90;;
781;SDS011;374;52.568;13.402;2024-02-04T08:04:22;7.50;;;5.83;;
781;SDS011;374;52.568;13.402;2024-02-04T08:07:06;11.70;;;6.00;;
781;SDS011;374;52.568;13.402;2024-02-04T08:09:32;9.67;;;6.00;;
781;SDS011;374;52.568;13.402;2024-02-04T08:11:57;9.93;;;5.90;;
781;SDS011;374;52.568;13.402;2024-02-04T08:14:23;7.13;;;4.80;;
781;SDS011;374;52.568;13.402;2024-02-04T08:16:49;6.40;;;4.63;;
781;SDS011;374;52.568;13.402;2024-02-04T08:19:15;10.90;;;6.07;;
781;SDS011;374;52.568;13.402;2024-02-04T08:21:41;14.10;;;6.00;;
781;SDS011;374;52.568;13.402;2024-02-04T08:24:07;8.37;;;5.30;;
781;SDS011;374;52.568;13.402;2024-02-04T08:26:42;7.83;;;5.07;;
781;SDS011;374;52.568;13.402;2024-02-04T08:29:37;12.40;;;5.77;;
781;SDS011;374;52.568;13.402;2024-02-04T08:32:50;9.60;;;5.57;;
781;SDS011;374;52.568;13.402;2024-02-04T08:35:15;15.00;;;5.10;;
781;SDS011;374;52.568;13.402;2024-02-04T08:37:41;6.77;;;5.20;;
781;SDS011;374;52.568;13.402;2024-02-04T08:40:07;9.43;;;5.07;;
781;SDS011;374;52.568;13.402;2024-02-04T08:42:36;8.70;;;4.77;;
781;SDS011;374;52.568;13.402;2024-02-04T08:45:02;10.73;;;5.73;;
781;SDS011;374;52.568;13.402;2024-02-04T08:47:28;6.77;;;4.73;;
781;SDS011;374;52.568;13.402;2024-02-04T08:49:56;8.73;;;5.20;;
781;SDS011;374;52.568;13.402;2024-02-04T08:52:24;13.33;;;4.10;;
781;SDS011;374;52.568;13.402;2024-02-04T08:54:50;7.23;;;4.10;;
781;SDS011;374;52.568;13.402;2024-02-04T08:57:16;8.77;;;4.77;;
781;SDS011;374;52.568;13.402;2024-02-04T08:59:45;3.90;;;3.50;;
781;SDS011;374;52.568;13.402;2024-02-04T09:02:11;12.43;;;5.40;;
781;SDS011;374;52.568;13.402;2024-02-04T09:04:47;8.30;;;5.40;;
781;SDS011;374;52.568;13.402;2024-02-04T09:07:13;5.63;;;4.10;;
781;SDS011;374;52.568;13.402;2024-02-04T09:09:38;6.40;;;3.67;;
781;SDS011;374;52.568;13.402;2024-02-04T09:12:04;5.50;;;4.23;;
781;SDS011;374;52.568;13.402;2024-02-04T09:14:30;7.43;;;3.70;;
781;SDS011;374;52.568;13.402;2024-02-04T09:16:56;7.90;;;3.83;;
781;SDS011;374;52.568;13.402;2024-02-04T09:19:22;6.87;;;4.00;;
781;SDS011;374;52.568;13.402;2024-02-04T09:21:49;7.83;;;3.47;;
781;SDS011;374;52.568;13.402;2024-02-04T09:24:15;5.17;;;3.57;;
781;SDS011;374;52.568;13.402;2024-02-04T09:26:41;7.43;;;4.00;;
781;SDS011;374;52.568;13.402;2024-02-04T09:29:08;12.23;;;3.97;;
781;SDS011;374;52.568;13.402;2024-02-04T09:31:36;4.07;;;3.00;;
781;SDS011;374;52.568;13.402;2024-02-04T09:34:02;13.30;;;3.77;;
781;SDS011;374;52.568;13.402;2024-02-04T09:36:28;7.00;;;4.17;;
781;SDS011;374;52.568;13.402;2024-02-04T09:38:54;10.40;;;3.50;;
781;SDS011;374;52.568;13.402;2024-02-04T09:41:20;9.40;;;3.43;;
781;SDS011;374;52.568;13.402;2024-02-04T09:43:48;5.00;;;3.50;;
781;SDS011;374;52.568;13.402;2024-02-04T09:49:28;5.80;;;2.43;;
781;SDS011;374;52.568;13.402;2024-02-04T09:51:56;7.60;;;3.37;;
781;SDS011;374;52.568;13.402;2024-02-04T09:54:28;3.97;;;3.00;;
781;SDS011;374;52.568;13.402;2024-02-04T09:57:15;5.97;;;3.00;;
781;SDS011;374;52.568;13.402;2024-02-04T09:59:46;7.07;;;3.90;;
781;SDS011;374;52.568;13.402;2024-02-04T10:02:13;5.60;;;2.70;;
781;SDS011;374;52.568;13.402;2024-02-04T10:04:40;5.63;;;1.97;;
781;SDS011;374;52.568;13.402;2024-02-04T10:07:06;8.83;;;2.90;;
781;SDS011;374;52.568;13.402;2024-02-04T10:09:33;7.30;;;3.07;;
781;SDS011;374;52.568;13.402;2024-02-04T10:11:58;6.20;;;2.53;;
781;SDS011;374;52.568;13.402;2024-02-04T10:14:24;5.50;;;1.90;;
781;SDS011;374;52.568;13.402;2024-02-04T10:16:50;7.50;;;2.57;;
781;SDS011;374;52.568;13.402;2024-02-04T10:19:16;8.40;;;2.80;;
781;SDS011;374;52.568;13.402;2024-02-04T10:21:41;6.40;;;2.57;;
781;SDS011;374;52.568;13.402;2024-02-04T10:24:20;4.70;;;1.97;;
781;SDS011;374;52.568;13.402;2024-02-04T10:27:22;6.53;;;2.80;;
781;SDS011;374;52.568;13.402;2024-02-04T10:29:53;7.57;;;3.13;;
781;SDS011;374;52.568;13.402;2024-02-04T10:33:20;5.03;;;2.90;;
781;SDS011;374;52.568;13.402;2024-02-04T10:36:03;5.30;;;2.00;;
781;SDS011;374;52.568;13.402;2024-02-04T10:39:05;3.57;;;1.67;;
781;SDS011;374;52.568;13.402;2024-02-04T10:41:34;6.53;;;2.23;;
781;SDS011;374;52.568;13.402;2024-02-04T10:44:12;7.03;;;3.73;;
781;SDS011;374;52.568;13.402;2024-02-04T10:46:57;12.90;;;2.13;;
781;SDS011;374;52.568;13.402;2024-02-04T10:50:02;4.93;;;2.60;;
781;SDS011;374;52.568;13.402;2024-02-04T10:52:54;9.33;;;2.30;;
781;SDS011;374;52.568;13.402;2024-02-04T10:58:56;4.50;;;2.63;;
781;SDS011;374;52.568;13.402;2024-02-04T11:01:25;4.67;;;2.40;;
781;SDS011;374;52.568;13.402;2024-02-04T11:04:11;2.47;;;1.63;;
781;SDS011;374;52.568;13.402;2024-02-04T11:07:07;4.80;;;2.30;;
781;SDS011;374;52.568;13.402;2024-02-04T11:09:57;8.20;;;2.87;;
781;SDS011;374;52.568;13.402;2024-02-04T11:12:38;3.33;;;2.03;;
781;SDS011;374;52.568;13.402;2024-02-04T11:15:28;7.20;;;2.10;;
781;SDS011;374;52.568;13.402;2024-02-04T11:18:41;1.90;;;1.67;;
781;SDS011;374;52.568;13.402;2024-02-04T11:31:55;3.77;;;2.03;;
781;SDS011;374;52.568;13.402;2024-02-04T11:34:36;2.90;;;2.17;;
781;SDS011;374;52.568;13.402;2024-02-04T11:37:19;4.70;;;2.60;;
781;SDS011;374;52.568;13.402;2024-02-04T11:39:51;7.67;;;3.10;;
781;SDS011;374;52.568;13.402;2024-02-04T11:42:24;5.23;;;1.97;;
781;SDS011;374;52.568;13.402;2024-02-04T11:44:50;10.33;;;2.90;;
781;SDS011;374;52.568;13.402;2024-02-04T11:47:25;5.93;;;1.80;;
781;SDS011;374;52.568;13.402;2024-02-04T11:49:55;5.83;;;1.97;;
781;SDS011;374;52.568;13.402;2024-02-04T11:52:22;9.80;;;2.60;;
781;SDS011;374;52.568;13.402;2024-02-04T11:54:47;6.87;;;3.80;;
781;SDS011;374;52.568;13.402;2024-02-04T11:57:14;5.40;;;2.23;;
781;SDS011;374;52.568;13.402;2024-02-04T11:59:40;4.00;;;2.67;;
781;SDS011;374;52.568;13.402;2024-02-04T12:02:07;6.57;;;3.50;;
781;SDS011;374;52.568;13.402;2024-02-04T12:04:33;7.67;;;2.20;;
781;SDS011;374;52.568;13.402;2024-02-04T12:06:59;4.00;;;2.47;;
781;SDS011;374;52.568;13.402;2024-02-04T12:09:25;3.70;;;2.20;;
781;SDS011;374;52.568;13.402;2024-02-04T12:11:51;5.13;;;2.47;;
781;SDS011;374;52.568;13.402;2024-02-04T12:14:18;5.97;;;2.57;;
781;SDS011;374;52.568;13.402;2024-02-04T12:16:44;7.33;;;3.00;;
781;SDS011;374;52.568;13.402;2024-02-04T12:19:10;9.70;;;3.30;;
781;SDS011;374;52.568;13.402;2024-02-04T12:21:36;9.13;;;2.60;;
781;SDS011;374;52.568;13.402;2024-02-04T12:24:02;6.47;;;2.97;;
781;SDS011;374;52.568;13.402;2024-02-04T12:26:28;2.97;;;2.27;;
781;SDS011;374;52.568;13.402;2024-02-04T12:28:54;5.13;;;3.07;;
781;SDS011;374;52.568;13.402;2024-02-04T12:31:20;4.50;;;2.50;;
781;SDS011;374;52.568;13.402;2024-02-04T12:33:56;7.07;;;2.80;;
781;SDS011;374;52.568;13.402;2024-02-04T12:36:30;4.63;;;2.07;;
781;SDS011;374;52.568;13.402;2024-02-04T12:38:56;3.73;;;1.83;;
781;SDS011;374;52.568;13.402;2024-02-04T12:41:23;4.90;;;2.47;;
781;SDS011;374;52.568;13.402;2024-02-04T12:43:53;5.00;;;2.20;;
781;SDS011;374;52.568;13.402;2024-02-04T12:46:20;5.17;;;2.37;;
781;SDS011;374;52.568;13.402;2024-02-04T12:48:56;3.37;;;1.90;;
781;SDS011;374;52.568;13.402;2024-02-04T12:51:26;4.77;;;2.50;;
781;SDS011;374;52.568;13.402;2024-02-04T12:56:42;6.93;;;2.40;;
781;SDS011;374;52.568;13.402;2024-02-04T12:59:12;4.93;;;1.93;;
781;SDS011;374;52.568;13.402;2024-02-04T13:02:02;3.63;;;1.90;;
781;SDS011;374;52.568;13.402;2024-02-04T13:04:41;3.37;;;2.60;;
781;SDS011;374;52.568;13.402;2024-02-04T13:07:08;8.87;;;2.87;;
781;SDS011;374;52.568;13.402;2024-02-04T13:09:39;4.93;;;2.40;;
781;SDS011;374;52.568;13.402;2024-02-04T13:12:05;3.93;;;2.10;;
781;SDS011;374;52.568;13.402;2024-02-04T13:14:33;5.17;;;2.20;;
781;SDS011;374;52.568;13.402;2024-02-04T13:16:59;6.63;;;2.33;;
781;SDS011;374;52.568;13.402;2024-02-04T13:19:25;3.13;;;2.00;;
781;SDS011;374;52.568;13.402;2024-02-04T13:21:57;4.33;;;2.60;;
781;SDS011;374;52.568;13.402;2024-02-04T13:24:22;3.70;;;2.40;;
781;SDS011;374;52.568;13.402;2024-02-04T13:26:48;3.90;;;2.00;;
781;SDS011;374;52.568;13.402;2024-02-04T13:29:13;6.00;;;3.00;;
781;SDS011;374;52.568;13.402;2024-02-04T13:31:39;8.83;;;2.10;;
781;SDS011;374;52.568;13.402;2024-02-04T13:34:04;4.20;;;1.90;;
781;SDS011;374;52.568;13.402;2024-02-04T13:36:30;4.10;;;2.23;;
781;SDS011;374;52.568;13.402;2024-02-04T13:38:56;8.53;;;3.10;;
781;SDS011;374;52.568;13.402;2024-02-04T13:41:22;6.27;;;2.57;;
781;SDS011;374;52.568;13.402;2024-02-04T13:43:47;4.87;;;3.10;;
781;SDS011;374;52.568;13.402;2024-02-04T13:46:13;3.63;;;2.37;;
781;SDS011;374;52.568;13.402;2024-02-04T13:48:38;6.10;;;2.60;;
781;SDS011;374;52.568;13.402;2024-02-04T13:51:04;6.03;;;2.50;;
781;SDS011;374;52.568;13.402;2024-02-04T13:53:30;5.43;;;2.60;;
781;SDS011;374;52.568;13.402;2024-02-04T13:55:59;3.07;;;2.63;;
781;SDS011;374;52.568;13.402;2024-02-04T13:58:24;7.43;;;2.63;;
781;SDS011;374;52.568;13.402;2024-02-04T14:00:51;4.73;;;2.43;;
781;SDS011;374;52.568;13.402;2024-02-04T14:03:18;4.93;;;2.40;;
781;SDS011;374;52.568;13.402;2024-02-04T14:05:51;6.07;;;2.07;;
781;SDS011;374;52.568;13.402;2024-02-04T14:08:20;7.40;;;2.70;;
781;SDS011;374;52.568;13.402;2024-02-04T14:10:48;5.43;;;2.90;;
781;SDS011;374;52.568;13.402;2024-02-04T14:13:18;7.20;;;2.80;;
781;SDS011;374;52.568;13.402;2024-02-04T14:15:54;3.80;;;2.67;;
781;SDS011;374;52.568;13.402;2024-02-04T14:19:15;7.67;;;3.03;;
781;SDS011;374;52.568;13.402;2024-02-04T14:25:45;7.80;;;3.93;;
781;SDS011;374;52.568;13.402;2024-02-04T14:28:33;3.70;;;2.43;;
781;SDS011;374;52.568;13.402;2024-02-04T14:31:12;8.00;;;2.90;;
781;SDS011;374;52.568;13.402;2024-02-04T14:33:44;6.07;;;3.40;;
781;SDS011;374;52.568;13.402;2024-02-04T14:36:12;10.00;;;3.00;;
781;SDS011;374;52.568;13.402;2024-02-04T14:39:05;7.03;;;3.67;;
781;SDS011;374;52.568;13.402;2024-02-04T14:41:37;5.10;;;3.73;;
781;SDS011;374;52.568;13.402;2024-02-04T14:44:12;9.30;;;4.20;;
781;SDS011;374;52.568;13.402;2024-02-04T14:46:46;6.10;;;3.20;;
781;SDS011;374;52.568;13.402;2024-02-04T14:49:16;14.87;;;6.03;;
781;SDS011;374;52.568;13.402;2024-02-04T14:51:52;5.57;;;3.00;;
781;SDS011;374;52.568;13.402;2024-02-04T14:54:21;7.80;;;3.17;;
781;SDS011;374;52.568;13.402;2024-02-04T14:56:52;10.00;;;3.60;;
781;SDS011;374;52.568;13.402;2024-02-04T14:59:23;7.93;;;3.17;;
781;SDS011;374;52.568;13.402;2024-02-04T15:01:55;3.80;;;2.30;;
781;SDS011;374;52.568;13.402;2024-02-04T15:04:42;7.37;;;3.20;;
781;SDS011;374;52.568;13.402;2024-02-04T15:07:12;13.53;;;4.13;;
781;SDS011;374;52.568;13.402;2024-02-04T15:09:51;3.63;;;3.13;;
781;SDS011;374;52.568;13.402;2024-02-04T15:16:17;4.93;;;3.20;;
781;SDS011;374;52.568;13.402;2024-02-04T15:19:03;8.40;;;3.27;;
781;SDS011;374;52.568;13.402;2024-02-04T15:25:19;10.37;;;3.20;;
781;SDS011;374;52.568;13.402;2024-02-04T15:27:47;13.07;;;3.00;;
781;SDS011;374;52.568;13.402;2024-02-04T15:30:17;6.63;;;2.80;;
781;SDS011;374;52.568;13.402;2024-02-04T15:32:46;4.50;;;3.33;;
781;SDS011;374;52.568;13.402;2024-02-04T15:35:25;5.73;;;2.83;;
781;SDS011;374;52.568;13.402;2024-02-04T15:37:53;6.33;;;2.67;;
781;SDS011;374;52.568;13.402;2024-02-04T15:40:23;4.43;;;3.47;;
781;SDS011;374;52.568;13.402;2024-02-04T15:49:40;6.03;;;2.97;;
781;SDS011;374;52.568;13.402;2024-02-04T15:52:19;10.03;;;3.77;;
781;SDS011;374;52.568;13.402;2024-02-04T15:54:56;6.47;;;2.57;;
781;SDS011;374;52.568;13.402;2024-02-04T15:57:22;6.10;;;2.97;;
781;SDS011;374;52.568;13.402;2024-02-04T15:59:57;6.57;;;3.67;;
781;SDS011;374;52.568;13.402;2024-02-04T16:02:26;6.53;;;3.10;;
781;SDS011;374;52.568;13.402;2024-02-04T16:04:52;8.10;;;3.80;;
781;SDS011;374;52.568;13.402;2024-02-04T16:07:18;10.40;;;4.00;;
781;SDS011;374;52.568;13.402;2024-02-04T16:09:47;12.47;;;4.03;;
781;SDS011;374;52.568;13.402;2024-02-04T16:12:23;12.00;;;4.03;;
781;SDS011;374;52.568;13.402;2024-02-04T16:14:51;5.33;;;2.73;;
781;SDS011;374;52.568;13.402;2024-02-04T16:17:18;7.97;;;3.60;;
781;SDS011;374;52.568;13.402;2024-02-04T16:19:48;8.03;;;3.90;;
781;SDS011;374;52.568;13.402;2024-02-04T16:22:18;8.53;;;3.60;;